createdAt,value
2019-03-29T00:02:24.227Z,15.20
2019-03-29T00:04:52.258Z,15.38
2019-03-29T00:07:20.229Z,14.93
2019-03-29T00:09:47.550Z,15.45
2019-03-29T00:12:14.884Z,15.72
2019-03-29T00:14:42.359Z,14.63
2019-03-29T00:17:09.768Z,15.72
2019-03-29T00:19:37.087Z,13.48
2019-03-29T00:22:05.114Z,15.45
2019-03-29T00:24:32.629Z,13.32
2019-03-29T00:27:00.362Z,14.28
2019-03-29T00:29:27.582Z,14.95
2019-03-29T00:31:54.935Z,13.70
2019-03-29T00:34:22.259Z,13.30
2019-03-29T00:36:49.600Z,12.50
2019-03-29T00:39:16.899Z,12.13
2019-03-29T00:41:44.255Z,12.60
2019-03-29T00:44:11.572Z,12.93
2019-03-29T00:46:38.803Z,12.70
2019-03-29T00:49:06.029Z,12.82
2019-03-29T00:51:33.362Z,13.20
2019-03-29T00:54:01.898Z,12.95
2019-03-29T00:56:29.657Z,11.97
2019-03-29T00:58:56.968Z,13.70
2019-03-29T01:01:24.305Z,11.70
2019-03-29T01:03:51.919Z,12.45
2019-03-29T01:06:19.265Z,11.50
2019-03-29T01:08:46.786Z,13.30
2019-03-29T01:11:14.286Z,13.35
2019-03-29T01:13:42.359Z,12.88
2019-03-29T01:16:09.682Z,13.48
2019-03-29T01:18:37.950Z,12.60
2019-03-29T01:21:05.440Z,13.13
2019-03-29T01:23:32.785Z,13.30
2019-03-29T01:26:00.961Z,13.22
2019-03-29T01:28:28.567Z,14.28
2019-03-29T01:30:55.907Z,12.95
2019-03-29T01:33:23.121Z,13.98
2019-03-29T01:35:50.593Z,14.18
2019-03-29T01:38:22.182Z,13.08
2019-03-29T01:40:47.064Z,13.90
2019-03-29T01:43:14.436Z,13.22
2019-03-29T01:45:41.746Z,13.68
2019-03-29T01:48:09.202Z,13.88
2019-03-29T01:50:36.515Z,13.68
2019-03-29T01:53:03.834Z,14.45
2019-03-29T01:55:31.064Z,13.83
2019-03-29T01:57:59.067Z,15.03
2019-03-29T02:00:31.210Z,15.38
2019-03-29T02:02:58.674Z,14.33
2019-03-29T02:05:25.988Z,16.50
2019-03-29T02:07:53.216Z,15.55
2019-03-29T02:10:20.531Z,15.08
2019-03-29T02:12:47.876Z,16.17
2019-03-29T02:15:15.186Z,16.80
2019-03-29T02:17:42.517Z,16.17
2019-03-29T02:20:10.444Z,15.20
2019-03-29T02:22:37.806Z,15.55
2019-03-29T02:25:06.222Z,16.07
2019-03-29T02:27:33.588Z,16.80
2019-03-29T02:30:05.449Z,15.35
2019-03-29T02:32:32.783Z,16.87
2019-03-29T02:35:02.317Z,17.37
2019-03-29T02:37:30.144Z,17.07
2019-03-29T02:39:57.504Z,17.70
2019-03-29T02:42:24.881Z,18.95
2019-03-29T02:44:52.269Z,19.15
2019-03-29T02:47:21.504Z,20.32
2019-03-29T02:49:48.902Z,18.27
2019-03-29T02:52:16.447Z,21.42
2019-03-29T02:54:44.112Z,21.37
2019-03-29T02:57:11.456Z,22.42
2019-03-29T02:59:38.698Z,23.12
2019-03-29T03:02:06.280Z,24.90
2019-03-29T03:04:33.892Z,21.30
2019-03-29T03:07:02.026Z,19.55
2019-03-29T03:09:29.265Z,19.60
2019-03-29T03:11:56.596Z,19.90
2019-03-29T03:14:24.285Z,21.50
2019-03-29T03:16:51.584Z,22.77
2019-03-29T03:19:19.154Z,23.92
2019-03-29T03:21:46.498Z,26.00
2019-03-29T03:24:13.876Z,26.25
2019-03-29T03:26:41.116Z,25.92
2019-03-29T03:29:08.475Z,27.32
2019-03-29T03:31:35.822Z,23.92
2019-03-29T03:34:03.544Z,22.93
2019-03-29T03:36:30.940Z,21.10
2019-03-29T03:38:58.290Z,19.00
2019-03-29T03:41:25.625Z,19.50
2019-03-29T03:43:52.882Z,17.95
2019-03-29T03:46:20.213Z,18.80
2019-03-29T03:48:47.588Z,19.55
2019-03-29T03:51:15.224Z,18.35
2019-03-29T03:53:42.593Z,19.10
2019-03-29T03:56:10.523Z,18.87
2019-03-29T03:58:39.508Z,19.25
2019-03-29T04:01:06.848Z,22.45
2019-03-29T04:03:34.238Z,21.52
2019-03-29T04:06:01.593Z,22.17
2019-03-29T04:08:28.935Z,22.58
2019-03-29T04:10:56.294Z,22.65
2019-03-29T04:13:23.687Z,27.95
2019-03-29T04:15:51.050Z,26.48
2019-03-29T04:18:20.698Z,24.43
2019-03-29T04:20:48.051Z,26.20
2019-03-29T04:23:15.405Z,26.00
2019-03-29T04:25:43.131Z,26.57
2019-03-29T04:28:10.496Z,29.85
2019-03-29T04:30:38.173Z,25.48
2019-03-29T04:33:05.550Z,28.52
2019-03-29T04:35:33.253Z,28.25
2019-03-29T04:38:00.584Z,25.62
2019-03-29T04:40:27.941Z,23.98
2019-03-29T04:42:56.751Z,24.67
2019-03-29T04:45:24.133Z,23.90
2019-03-29T04:47:53.711Z,24.12
2019-03-29T04:50:21.077Z,25.02
2019-03-29T04:52:48.369Z,24.23
2019-03-29T04:55:15.731Z,24.52
2019-03-29T04:57:43.090Z,26.75
2019-03-29T05:00:10.690Z,28.77
2019-03-29T05:02:38.047Z,31.15
2019-03-29T05:05:05.340Z,35.95
2019-03-29T05:07:32.602Z,31.35
2019-03-29T05:09:59.947Z,29.10
2019-03-29T05:12:27.318Z,28.25
2019-03-29T05:14:54.643Z,23.85
2019-03-29T05:17:21.999Z,27.55
2019-03-29T05:19:49.352Z,27.85
2019-03-29T05:22:16.690Z,28.15
2019-03-29T05:24:44.094Z,32.55
2019-03-29T05:27:11.326Z,30.55
2019-03-29T05:29:38.692Z,28.15
2019-03-29T05:32:06.044Z,28.95
2019-03-29T05:34:33.384Z,26.80
2019-03-29T05:37:00.763Z,28.75
2019-03-29T05:39:28.428Z,31.42
2019-03-29T05:41:55.775Z,37.93
2019-03-29T05:44:23.112Z,39.98
2019-03-29T05:47:06.926Z,34.55
2019-03-29T05:49:34.263Z,31.55
2019-03-29T05:52:01.616Z,30.10
2019-03-29T05:54:28.987Z,27.80
2019-03-29T05:56:56.237Z,28.40
2019-03-29T05:59:23.590Z,26.90
2019-03-29T06:01:51.157Z,24.98
2019-03-29T06:04:18.517Z,23.80
2019-03-29T06:06:45.850Z,26.00
2019-03-29T06:09:13.122Z,23.98
2019-03-29T06:11:40.452Z,25.52
2019-03-29T06:14:07.824Z,21.70
2019-03-29T06:16:39.123Z,24.32
2019-03-29T06:19:04.405Z,23.62
2019-03-29T06:21:31.771Z,23.27
2019-03-29T06:23:59.124Z,22.60
2019-03-29T06:26:26.471Z,21.90
2019-03-29T06:28:53.829Z,21.23
2019-03-29T06:31:21.160Z,21.23
2019-03-29T06:33:48.519Z,20.30
2019-03-29T06:36:16.383Z,21.10
2019-03-29T06:39:06.124Z,19.98
2019-03-29T06:41:33.345Z,19.62
2019-03-29T06:44:00.671Z,20.05
2019-03-29T06:46:47.264Z,19.62
2019-03-29T06:49:14.564Z,18.90
2019-03-29T06:51:41.786Z,15.48
2019-03-29T06:54:09.087Z,14.03
2019-03-29T06:56:36.335Z,12.65
2019-03-29T06:59:03.563Z,12.60
2019-03-29T07:01:30.871Z,12.78
2019-03-29T07:03:58.192Z,11.70
2019-03-29T07:06:25.518Z,11.80
2019-03-29T07:08:52.843Z,11.90
2019-03-29T07:11:19.964Z,12.03
2019-03-29T07:13:57.429Z,12.82
2019-03-29T07:16:16.303Z,12.50
2019-03-29T07:18:43.506Z,11.57
2019-03-29T07:21:21.422Z,12.43
2019-03-29T07:23:39.865Z,12.35
2019-03-29T07:26:07.237Z,12.55
2019-03-29T07:28:34.555Z,12.40
2019-03-29T07:31:01.909Z,12.47
2019-03-29T07:33:29.241Z,12.47
2019-03-29T07:35:56.387Z,12.53
2019-03-29T07:38:23.740Z,11.93
2019-03-29T07:40:51.073Z,12.55
2019-03-29T07:43:18.202Z,13.03
2019-03-29T07:45:45.432Z,13.85
2019-03-29T07:48:12.773Z,13.85
2019-03-29T07:50:40.096Z,13.88
2019-03-29T07:53:07.428Z,13.58
2019-03-29T07:55:37.225Z,13.70
2019-03-29T07:58:23.634Z,12.93
2019-03-29T08:00:50.974Z,13.55
2019-03-29T08:03:37.938Z,13.45
2019-03-29T08:06:05.142Z,13.62
2019-03-29T08:08:34.419Z,13.10
2019-03-29T08:11:01.723Z,12.28
2019-03-29T08:13:29.033Z,12.50
2019-03-29T08:15:56.277Z,13.83
2019-03-29T08:18:23.609Z,13.28
2019-03-29T08:20:50.834Z,14.13
2019-03-29T08:23:18.186Z,14.78
2019-03-29T08:25:45.433Z,15.53
2019-03-29T08:28:12.780Z,15.15
2019-03-29T08:30:40.183Z,14.80
2019-03-29T08:33:07.336Z,13.98
2019-03-29T08:35:34.596Z,14.55
2019-03-29T08:38:01.867Z,14.60
2019-03-29T08:40:29.171Z,15.28
2019-03-29T08:42:56.411Z,15.08
2019-03-29T08:45:23.729Z,14.28
2019-03-29T08:47:51.080Z,14.83
2019-03-29T08:50:18.448Z,15.10
2019-03-29T08:52:45.848Z,15.48
2019-03-29T08:55:13.184Z,14.65
2019-03-29T08:57:40.433Z,14.47
2019-03-29T09:00:08.164Z,14.93
2019-03-29T09:02:35.915Z,14.73
2019-03-29T09:05:04.026Z,13.45
2019-03-29T09:07:44.066Z,14.55
2019-03-29T09:10:00.768Z,12.97
2019-03-29T09:12:28.249Z,12.88
2019-03-29T09:14:55.496Z,12.43
2019-03-29T09:17:22.832Z,12.15
2019-03-29T09:19:50.057Z,11.18
2019-03-29T09:22:17.394Z,11.35
2019-03-29T09:24:44.613Z,12.13
2019-03-29T09:27:12.046Z,11.33
2019-03-29T09:29:39.190Z,10.95
2019-03-29T09:32:06.506Z,9.43
2019-03-29T09:34:33.736Z,10.50
2019-03-29T09:37:00.939Z,9.63
2019-03-29T09:39:28.276Z,10.28
2019-03-29T09:41:55.598Z,9.65
2019-03-29T09:44:22.944Z,9.55
2019-03-29T09:46:50.272Z,10.05
2019-03-29T09:49:17.412Z,8.93
2019-03-29T09:52:03.983Z,10.08
2019-03-29T09:54:31.248Z,9.60
2019-03-29T09:56:58.599Z,10.03
2019-03-29T09:59:25.832Z,9.50
2019-03-29T10:01:54.223Z,9.63
2019-03-29T10:04:41.051Z,9.88
2019-03-29T10:07:08.364Z,9.13
2019-03-29T10:09:35.598Z,9.55
2019-03-29T10:12:03.008Z,10.03
2019-03-29T10:14:33.265Z,9.15
2019-03-29T10:16:59.612Z,9.18
2019-03-29T10:19:26.800Z,9.35
2019-03-29T10:21:54.146Z,8.70
2019-03-29T10:24:21.379Z,9.23
2019-03-29T10:26:48.700Z,9.85
2019-03-29T10:29:18.207Z,9.93
2019-03-29T10:31:45.713Z,10.40
2019-03-29T10:34:13.163Z,10.40
2019-03-29T10:36:40.407Z,10.53
2019-03-29T10:39:31.439Z,10.95
2019-03-29T10:41:58.972Z,11.80
2019-03-29T10:44:26.285Z,11.40
2019-03-29T10:46:53.616Z,11.88
2019-03-29T10:49:20.959Z,10.48
2019-03-29T10:51:48.276Z,11.70
2019-03-29T10:54:15.606Z,10.85
2019-03-29T10:56:42.971Z,12.30
2019-03-29T10:59:10.214Z,12.13
2019-03-29T11:01:37.547Z,11.38
2019-03-29T11:04:04.794Z,10.65
2019-03-29T11:06:32.111Z,12.43
2019-03-29T11:08:59.344Z,12.47
2019-03-29T11:11:26.649Z,10.72
2019-03-29T11:13:56.694Z,11.68
2019-03-29T11:16:23.242Z,10.58
2019-03-29T11:18:50.497Z,11.12
2019-03-29T11:21:17.809Z,11.43
2019-03-29T11:23:45.145Z,10.20
2019-03-29T11:26:12.440Z,9.93
2019-03-29T11:28:39.829Z,11.18
2019-03-29T11:31:07.293Z,11.03
2019-03-29T11:33:54.230Z,11.12
2019-03-29T11:36:21.451Z,11.50
2019-03-29T11:38:48.681Z,12.10
2019-03-29T11:41:15.979Z,11.00
2019-03-29T11:43:43.292Z,11.85
2019-03-29T11:46:10.619Z,10.10
2019-03-29T11:48:37.827Z,11.35
2019-03-29T11:51:18.320Z,12.05
2019-03-29T11:53:34.368Z,12.07
2019-03-29T11:56:01.709Z,10.95
2019-03-29T11:58:28.925Z,12.35
2019-03-29T12:00:56.162Z,11.93
2019-03-29T12:03:23.473Z,12.95
2019-03-29T12:05:50.790Z,12.28
2019-03-29T12:08:18.199Z,13.38
2019-03-29T12:10:45.938Z,11.70
2019-03-29T12:13:13.253Z,11.80
2019-03-29T12:15:40.578Z,12.15
2019-03-29T12:18:07.824Z,10.65
2019-03-29T12:20:35.150Z,11.43
2019-03-29T12:23:02.481Z,12.15
2019-03-29T12:25:29.797Z,12.05
2019-03-29T12:27:57.502Z,12.65
2019-03-29T12:30:31.782Z,12.63
2019-03-29T12:32:54.039Z,11.60
2019-03-29T12:35:21.376Z,11.12
2019-03-29T12:37:48.594Z,11.63
2019-03-29T12:40:15.914Z,12.53
2019-03-29T12:42:43.234Z,11.35
2019-03-29T12:45:10.660Z,10.75
2019-03-29T12:47:37.958Z,9.70
2019-03-29T12:50:05.407Z,10.85
2019-03-29T12:52:32.623Z,11.53
2019-03-29T12:54:59.965Z,9.58
2019-03-29T12:57:27.284Z,10.68
2019-03-29T12:59:54.507Z,10.95
2019-03-29T13:02:21.719Z,10.68
2019-03-29T13:04:49.051Z,10.38
2019-03-29T13:07:16.248Z,10.35
2019-03-29T13:09:43.582Z,10.50
2019-03-29T13:12:10.907Z,11.63
2019-03-29T13:14:38.240Z,10.75
2019-03-29T13:17:05.582Z,10.30
2019-03-29T13:19:32.899Z,10.32
2019-03-29T13:22:00.319Z,10.63
2019-03-29T13:24:27.552Z,10.78
2019-03-29T13:26:54.901Z,11.15
2019-03-29T13:29:22.223Z,10.70
2019-03-29T13:31:49.561Z,10.38
2019-03-29T13:34:16.918Z,10.85
2019-03-29T13:36:44.160Z,10.50
2019-03-29T13:39:11.461Z,10.85
2019-03-29T13:41:38.794Z,12.47
2019-03-29T13:44:06.111Z,11.48
2019-03-29T13:46:33.255Z,12.25
2019-03-29T13:49:00.560Z,12.07
2019-03-29T13:51:27.836Z,12.35
2019-03-29T13:53:55.162Z,11.43
2019-03-29T13:56:22.405Z,11.95
2019-03-29T13:58:49.726Z,11.43
2019-03-29T14:01:16.962Z,12.18
2019-03-29T14:03:44.175Z,11.45
2019-03-29T14:06:11.507Z,13.55
2019-03-29T14:08:38.815Z,12.55
2019-03-29T14:11:06.143Z,12.80
2019-03-29T14:13:33.451Z,11.35
2019-03-29T14:16:00.784Z,10.50
2019-03-29T14:18:28.423Z,58.80
2019-03-29T14:20:55.744Z,10.68
2019-03-29T14:23:23.063Z,11.70
2019-03-29T14:25:50.292Z,10.00
2019-03-29T14:28:17.597Z,9.68
2019-03-29T14:30:44.923Z,8.93
2019-03-29T14:33:12.219Z,8.95
2019-03-29T14:35:39.453Z,10.40
2019-03-29T14:38:06.788Z,11.10
2019-03-29T14:40:33.993Z,10.28
2019-03-29T14:43:01.326Z,9.20
2019-03-29T14:45:28.648Z,9.95
2019-03-29T14:47:55.986Z,11.00
2019-03-29T14:50:23.314Z,10.90
2019-03-29T14:52:50.548Z,10.60
2019-03-29T14:55:17.879Z,10.90
2019-03-29T14:57:45.124Z,10.30
2019-03-29T15:00:13.665Z,11.38
2019-03-29T15:02:41.014Z,10.32
2019-03-29T15:05:08.530Z,10.60
2019-03-29T15:07:35.867Z,10.28
2019-03-29T15:10:03.574Z,10.58
2019-03-29T15:12:30.803Z,10.58
2019-03-29T15:15:05.948Z,11.08
2019-03-29T15:17:27.277Z,11.45
2019-03-29T15:19:54.583Z,9.65
2019-03-29T15:22:24.128Z,8.83
2019-03-29T15:24:51.462Z,10.05
2019-03-29T15:27:18.797Z,10.05
2019-03-29T15:29:46.110Z,9.35
2019-03-29T15:32:13.338Z,10.18
2019-03-29T15:34:40.482Z,9.15
2019-03-29T15:37:10.004Z,9.48
2019-03-29T15:39:36.904Z,9.28
2019-03-29T15:42:04.233Z,9.83
2019-03-29T15:44:31.556Z,8.98
2019-03-29T15:46:58.691Z,8.93
2019-03-29T15:49:25.903Z,8.78
2019-03-29T15:51:53.241Z,8.90
2019-03-29T15:54:20.470Z,9.33
2019-03-29T15:56:47.813Z,9.13
2019-03-29T15:59:15.025Z,7.85
2019-03-29T16:01:42.351Z,7.50
2019-03-29T16:04:09.690Z,9.88
2019-03-29T16:06:37.002Z,9.28
2019-03-29T16:09:05.323Z,8.10
2019-03-29T16:11:32.646Z,8.93
2019-03-29T16:13:59.876Z,7.97
2019-03-29T16:16:27.194Z,8.65
2019-03-29T16:18:54.310Z,8.28
2019-03-29T16:21:21.534Z,7.83
2019-03-29T16:23:48.746Z,8.25
2019-03-29T16:26:15.856Z,7.37
2019-03-29T16:28:43.080Z,9.08
2019-03-29T16:31:10.378Z,9.08
2019-03-29T16:33:37.706Z,8.28
2019-03-29T16:36:05.023Z,9.35
2019-03-29T16:38:32.263Z,9.75
2019-03-29T16:40:59.601Z,9.20
2019-03-29T16:43:26.973Z,9.38
2019-03-29T16:45:54.323Z,9.45
2019-03-29T16:48:21.548Z,9.18
2019-03-29T16:50:49.807Z,8.73
2019-03-29T16:53:17.154Z,10.10
2019-03-29T16:55:44.374Z,9.43
2019-03-29T16:58:11.722Z,8.45
2019-03-29T17:00:39.056Z,8.50
2019-03-29T17:03:06.291Z,8.25
2019-03-29T17:05:33.609Z,8.28
2019-03-29T17:08:00.944Z,9.20
2019-03-29T17:10:28.262Z,8.18
2019-03-29T17:12:55.604Z,7.87
2019-03-29T17:15:22.926Z,8.50
2019-03-29T17:17:50.145Z,8.03
2019-03-29T17:20:17.484Z,8.30
2019-03-29T17:22:44.818Z,7.10
2019-03-29T17:25:12.138Z,8.03
2019-03-29T17:27:39.948Z,7.60
2019-03-29T17:30:28.518Z,8.30
2019-03-29T17:32:55.726Z,8.08
2019-03-29T17:35:23.421Z,7.35
2019-03-29T17:37:50.741Z,8.48
2019-03-29T17:40:18.063Z,8.20
2019-03-29T17:42:45.376Z,7.12
2019-03-29T17:45:13.006Z,7.78
2019-03-29T17:47:40.218Z,8.08
2019-03-29T17:50:07.763Z,7.55
2019-03-29T17:52:35.098Z,6.87
2019-03-29T17:55:02.800Z,7.08
2019-03-29T17:57:30.131Z,7.28
2019-03-29T17:59:57.756Z,7.40
2019-03-29T18:02:25.067Z,7.67
2019-03-29T18:04:52.397Z,7.65
2019-03-29T18:07:19.618Z,7.12
2019-03-29T18:09:46.848Z,6.78
2019-03-29T18:12:14.164Z,7.58
2019-03-29T18:14:41.490Z,8.23
2019-03-29T18:17:08.800Z,7.95
2019-03-29T18:19:36.147Z,7.50
2019-03-29T18:22:03.444Z,7.55
2019-03-29T18:24:30.782Z,7.70
2019-03-29T18:26:58.111Z,7.65
2019-03-29T18:29:25.361Z,7.62
2019-03-29T18:32:13.865Z,7.37
2019-03-29T18:34:41.794Z,8.48
2019-03-29T18:37:12.081Z,8.05
2019-03-29T18:39:40.219Z,9.33
2019-03-29T18:42:07.440Z,8.23
2019-03-29T18:44:34.792Z,9.20
2019-03-29T18:47:02.035Z,8.73
2019-03-29T18:49:29.374Z,9.28
2019-03-29T18:51:56.698Z,9.15
2019-03-29T18:54:24.049Z,9.55
2019-03-29T18:56:51.362Z,9.40
2019-03-29T18:59:18.700Z,10.35
2019-03-29T19:01:46.035Z,9.40
2019-03-29T19:04:13.371Z,10.03
2019-03-29T19:06:40.583Z,9.45
2019-03-29T19:09:08.215Z,9.18
2019-03-29T19:11:35.851Z,9.60
2019-03-29T19:14:03.212Z,9.70
2019-03-29T19:16:30.452Z,9.93
2019-03-29T19:19:09.402Z,10.43
2019-03-29T19:21:27.025Z,10.85
2019-03-29T19:24:13.963Z,11.03
2019-03-29T19:26:41.297Z,10.32
2019-03-29T19:29:08.611Z,10.10
2019-03-29T19:31:35.943Z,10.03
2019-03-29T19:34:03.629Z,10.32
2019-03-29T19:36:30.874Z,10.35
2019-03-29T19:38:58.228Z,10.98
2019-03-29T19:41:25.579Z,11.05
2019-03-29T19:43:52.824Z,11.22
2019-03-29T19:46:20.068Z,10.50
2019-03-29T19:48:47.386Z,11.40
2019-03-29T19:51:14.717Z,11.10
2019-03-29T19:53:41.967Z,10.80
2019-03-29T19:56:09.233Z,11.90
2019-03-29T19:58:36.548Z,11.40
2019-03-29T20:01:04.017Z,10.93
2019-03-29T20:03:31.290Z,11.25
2019-03-29T20:05:58.717Z,13.08
2019-03-29T20:08:26.023Z,12.05
2019-03-29T20:10:53.357Z,11.40
2019-03-29T20:13:20.705Z,12.00
2019-03-29T20:15:48.376Z,12.25
2019-03-29T20:18:15.813Z,10.88
2019-03-29T20:20:43.144Z,12.50
2019-03-29T20:23:10.344Z,11.65
2019-03-29T20:25:40.200Z,10.65
2019-03-29T20:28:07.421Z,11.07
2019-03-29T20:30:35.042Z,11.45
2019-03-29T20:33:02.399Z,11.18
2019-03-29T20:35:29.726Z,12.18
2019-03-29T20:37:57.391Z,11.53
2019-03-29T20:40:24.719Z,12.03
2019-03-29T20:42:52.035Z,13.20
2019-03-29T20:45:19.345Z,13.40
2019-03-29T20:47:46.709Z,15.20
2019-03-29T20:50:14.130Z,15.70
2019-03-29T20:52:41.465Z,16.12
2019-03-29T20:55:09.651Z,16.02
2019-03-29T20:57:37.004Z,15.80
2019-03-29T21:00:05.687Z,14.33
2019-03-29T21:02:33.028Z,15.68
2019-03-29T21:05:00.631Z,15.23
2019-03-29T21:07:27.866Z,15.53
2019-03-29T21:09:55.180Z,15.88
2019-03-29T21:12:22.649Z,16.42
2019-03-29T21:14:49.727Z,15.10
2019-03-29T21:17:16.944Z,14.60
2019-03-29T21:19:44.255Z,15.48
2019-03-29T21:22:11.478Z,15.38
2019-03-29T21:24:38.786Z,27.17
2019-03-29T21:27:06.122Z,15.40
2019-03-29T21:29:33.437Z,15.45
2019-03-29T21:32:00.671Z,16.02
2019-03-29T21:34:27.875Z,15.08
2019-03-29T21:36:55.218Z,15.80
2019-03-29T21:39:22.612Z,15.65
2019-03-29T21:41:50.141Z,19.23
2019-03-29T21:44:17.455Z,28.42
2019-03-29T21:46:44.799Z,17.20
2019-03-29T21:49:12.119Z,20.95
2019-03-29T21:51:39.455Z,18.75
2019-03-29T21:54:06.772Z,19.12
2019-03-29T21:56:34.026Z,16.60
2019-03-29T21:59:01.347Z,17.37
2019-03-29T22:01:28.694Z,26.30
2019-03-29T22:03:55.905Z,36.33
2019-03-29T22:06:23.128Z,22.15
2019-03-29T22:08:50.331Z,30.57
2019-03-29T22:11:17.748Z,27.55
2019-03-29T22:13:45.091Z,21.73
2019-03-29T22:16:12.408Z,19.80
2019-03-29T22:18:39.779Z,18.48
2019-03-29T22:21:07.149Z,18.55
2019-03-29T22:23:34.384Z,19.50
2019-03-29T22:26:01.697Z,17.27
2019-03-29T22:28:29.016Z,17.27
2019-03-29T22:30:56.229Z,15.93
2019-03-29T22:33:23.547Z,16.85
2019-03-29T22:35:50.884Z,15.48
2019-03-29T22:38:18.212Z,14.90
2019-03-29T22:40:45.596Z,15.45
2019-03-29T22:43:12.825Z,17.05
2019-03-29T22:45:40.048Z,21.68
2019-03-29T22:48:07.471Z,20.23
2019-03-29T22:50:34.787Z,17.67
2019-03-29T22:53:02.116Z,16.23
2019-03-29T22:55:29.437Z,16.57
2019-03-29T22:57:56.777Z,15.88
2019-03-29T23:00:35.464Z,15.13
2019-03-29T23:03:03.026Z,13.93
2019-03-29T23:05:30.342Z,14.23
2019-03-29T23:07:57.683Z,16.80
2019-03-29T23:10:24.887Z,19.15
2019-03-29T23:12:52.205Z,18.62
2019-03-29T23:15:19.514Z,19.42
2019-03-29T23:17:46.733Z,21.17
2019-03-29T23:20:14.045Z,20.90
2019-03-29T23:22:41.379Z,20.57
2019-03-29T23:25:10.483Z,20.27
2019-03-29T23:27:37.724Z,19.95
2019-03-29T23:30:06.189Z,20.55
2019-03-29T23:32:33.514Z,20.70
2019-03-29T23:35:00.706Z,19.30
2019-03-29T23:37:27.940Z,19.80
2019-03-29T23:39:55.251Z,18.25
2019-03-29T23:42:22.573Z,18.02
2019-03-29T23:44:49.875Z,16.30
2019-03-29T23:47:17.174Z,15.63
2019-03-29T23:49:44.497Z,16.57
2019-03-29T23:52:11.691Z,16.87
2019-03-29T23:54:38.927Z,16.85
2019-03-29T23:57:06.561Z,16.55
2019-03-29T23:59:33.788Z,17.25
